createdAt,value
2023-05-17T00:02:47.215Z,99630.00
2023-05-17T00:05:50.069Z,99650.28
2023-05-17T00:08:52.582Z,99631.62
2023-05-17T00:11:55.327Z,99648.78
2023-05-17T00:14:57.652Z,99655.19
2023-05-17T00:18:00.636Z,99653.09
2023-05-17T00:21:03.093Z,99659.16
2023-05-17T00:24:06.148Z,99657.53
2023-05-17T00:27:08.525Z,99646.31
2023-05-17T00:30:11.455Z,99640.69
2023-05-17T00:33:13.830Z,99647.72
2023-05-17T00:36:16.816Z,99635.47
2023-05-17T00:39:19.128Z,99650.53
2023-05-17T00:42:21.875Z,99634.53
2023-05-17T00:45:24.280Z,99646.78
2023-05-17T00:48:29.331Z,99640.38
2023-05-17T00:51:31.990Z,99640.69
2023-05-17T00:54:35.260Z,99636.97
2023-05-17T00:57:37.985Z,99639.31
2023-05-17T01:00:41.153Z,99647.22
2023-05-17T01:03:43.959Z,99644.31
2023-05-17T01:06:49.221Z,99652.00
2023-05-17T01:09:51.942Z,99642.06
2023-05-17T01:13:17.931Z,99647.66
2023-05-17T01:16:31.128Z,99662.03
2023-05-17T01:19:53.500Z,99653.41
2023-05-17T01:23:33.715Z,99658.78
2023-05-17T01:26:38.465Z,99659.22
2023-05-17T01:29:44.544Z,99652.81
2023-05-17T01:32:47.553Z,99646.06
2023-05-17T01:35:50.034Z,99638.81
2023-05-17T01:38:52.735Z,99620.84
2023-05-17T01:42:08.471Z,99630.06
2023-05-17T01:45:30.775Z,99638.34
2023-05-17T01:48:40.116Z,99641.63
2023-05-17T01:52:41.021Z,99627.75
2023-05-17T01:55:50.049Z,99623.78
2023-05-17T01:58:53.421Z,99619.94
2023-05-17T02:02:00.853Z,99619.47
2023-05-17T02:05:05.735Z,99619.69
2023-05-17T02:08:08.202Z,99622.03
2023-05-17T02:11:10.988Z,99624.69
2023-05-17T02:14:13.693Z,99624.78
2023-05-17T02:17:16.159Z,99649.06
2023-05-17T02:20:19.647Z,99641.34
2023-05-17T02:23:22.036Z,99644.16
2023-05-17T02:26:24.690Z,99636.94
2023-05-17T02:29:27.035Z,99644.16
2023-05-17T02:32:29.895Z,99656.16
2023-05-17T02:35:32.577Z,99658.94
2023-05-17T02:38:35.268Z,99667.69
2023-05-17T02:41:37.749Z,99666.97
2023-05-17T02:44:40.468Z,99681.00
2023-05-17T02:47:43.093Z,99676.22
2023-05-17T02:50:46.249Z,99677.03
2023-05-17T02:53:48.676Z,99664.31
2023-05-17T02:56:51.520Z,99678.66
2023-05-17T02:59:53.961Z,99682.63
2023-05-17T03:02:56.781Z,99678.53
2023-05-17T03:06:02.750Z,99674.56
2023-05-17T03:09:07.022Z,99667.91
2023-05-17T03:12:09.967Z,99683.44
2023-05-17T03:15:13.718Z,99674.56
2023-05-17T03:18:16.610Z,99674.25
2023-05-17T03:21:19.664Z,99680.16
2023-05-17T03:24:23.111Z,99687.53
2023-05-17T03:27:26.367Z,99683.59
2023-05-17T03:30:29.057Z,99672.13
2023-05-17T03:33:32.796Z,99680.06
2023-05-17T03:36:35.760Z,99684.53
2023-05-17T03:39:38.513Z,99682.63
2023-05-17T03:42:41.533Z,99686.28
2023-05-17T03:45:44.251Z,99689.91
2023-05-17T03:48:46.656Z,99690.00
2023-05-17T03:51:49.448Z,99704.94
2023-05-17T03:54:52.816Z,99718.41
2023-05-17T03:57:55.588Z,99716.41
2023-05-17T04:00:59.028Z,99728.69
2023-05-17T04:04:04.480Z,99735.25
2023-05-17T04:07:07.321Z,99721.44
2023-05-17T04:10:10.369Z,99717.50
2023-05-17T04:13:12.734Z,99721.97
2023-05-17T04:16:15.808Z,99733.16
2023-05-17T04:19:18.498Z,99738.03
2023-05-17T04:22:21.682Z,99735.72
2023-05-17T04:25:24.936Z,99746.22
2023-05-17T04:28:27.817Z,99739.94
2023-05-17T04:31:32.144Z,99747.16
2023-05-17T04:34:36.473Z,99730.47
2023-05-17T04:37:40.373Z,99735.72
2023-05-17T04:40:44.035Z,99758.13
2023-05-17T04:43:46.496Z,99771.47
2023-05-17T04:46:50.534Z,99770.88
2023-05-17T04:49:53.084Z,99797.41
2023-05-17T04:52:55.968Z,99793.44
2023-05-17T04:55:58.904Z,99803.59
2023-05-17T04:59:02.844Z,99794.53
2023-05-17T05:02:06.790Z,99789.72
2023-05-17T05:05:10.957Z,99789.84
2023-05-17T05:08:13.972Z,99801.91
2023-05-17T05:11:18.827Z,99791.50
2023-05-17T05:14:21.528Z,99806.59
2023-05-17T05:17:24.381Z,99807.97
2023-05-17T05:20:28.235Z,99787.06
2023-05-17T05:23:31.751Z,99801.66
2023-05-17T05:26:34.617Z,99801.78
2023-05-17T05:29:38.942Z,99799.34
2023-05-17T05:32:41.739Z,99812.88
2023-05-17T05:35:45.764Z,99797.34
2023-05-17T05:38:48.821Z,99827.13
2023-05-17T05:41:54.797Z,99820.59
2023-05-17T05:44:57.362Z,99829.47
2023-05-17T05:48:00.767Z,99831.38
2023-05-17T05:51:03.603Z,99826.31
2023-05-17T05:54:06.486Z,99830.53
2023-05-17T05:57:09.182Z,99834.16
2023-05-17T06:00:12.757Z,99836.38
2023-05-17T06:03:15.490Z,99835.22
2023-05-17T06:06:19.454Z,99842.66
2023-05-17T06:09:22.081Z,99837.19
2023-05-17T06:12:24.759Z,99841.97
2023-05-17T06:15:27.634Z,99828.19
2023-05-17T06:18:30.627Z,99843.38
2023-05-17T06:21:33.191Z,99836.50
2023-05-17T06:24:36.217Z,99844.44
2023-05-17T06:27:38.971Z,99853.53
2023-05-17T06:30:41.984Z,99845.47
2023-05-17T06:33:46.861Z,99847.22
2023-05-17T06:36:49.599Z,99855.78
2023-05-17T06:40:00.051Z,99843.16
2023-05-17T06:43:12.260Z,99839.63
2023-05-17T06:46:14.698Z,99860.56
2023-05-17T06:49:17.555Z,99862.19
2023-05-17T06:52:20.045Z,99866.28
2023-05-17T06:55:24.618Z,99875.06
2023-05-17T06:58:27.058Z,99856.22
2023-05-17T07:01:30.405Z,99871.34
2023-05-17T07:04:33.252Z,99890.62
2023-05-17T07:07:36.347Z,99885.50
2023-05-17T07:10:38.855Z,99890.88
2023-05-17T07:13:41.678Z,99894.94
2023-05-17T07:16:44.052Z,99900.22
2023-05-17T07:19:50.890Z,99905.03
2023-05-17T07:22:53.401Z,99887.78
2023-05-17T07:25:56.375Z,99888.19
2023-05-17T07:28:58.809Z,99881.13
2023-05-17T07:32:01.752Z,99881.34
2023-05-17T07:35:04.266Z,99901.03
2023-05-17T07:38:06.959Z,99900.69
2023-05-17T07:41:09.974Z,99888.03
2023-05-17T07:44:12.770Z,99895.91
2023-05-17T07:47:15.230Z,99891.28
2023-05-17T07:50:17.889Z,99901.72
2023-05-17T07:53:20.321Z,99899.28
2023-05-17T07:56:23.186Z,99899.72
2023-05-17T07:59:25.982Z,99899.28
2023-05-17T08:02:28.708Z,99910.84
2023-05-17T08:05:31.658Z,99916.00
2023-05-17T08:08:35.219Z,99903.34
2023-05-17T08:11:41.468Z,99910.97
2023-05-17T08:14:43.950Z,99912.25
2023-05-17T08:17:46.810Z,99918.81
2023-05-17T08:20:50.500Z,99924.53
2023-05-17T08:23:54.309Z,99933.28
2023-05-17T08:26:56.717Z,99929.34
2023-05-17T08:29:59.878Z,99925.94
2023-05-17T08:33:03.184Z,99915.41
2023-05-17T08:36:09.331Z,99934.72
2023-05-17T08:39:12.679Z,99935.72
2023-05-17T08:42:21.755Z,99921.59
2023-05-17T08:45:26.866Z,99930.84
2023-05-17T08:48:33.599Z,99919.75
2023-05-17T08:51:37.010Z,99942.66
2023-05-17T08:54:39.761Z,99939.41
2023-05-17T08:57:43.454Z,99944.03
2023-05-17T09:00:47.742Z,99939.03
2023-05-17T09:03:50.274Z,99923.38
2023-05-17T09:06:53.080Z,99937.53
2023-05-17T09:09:55.718Z,99920.69
2023-05-17T09:12:58.604Z,99935.03
2023-05-17T09:16:00.978Z,99939.16
2023-05-17T09:19:09.082Z,99937.16
2023-05-17T09:22:17.855Z,99937.25
2023-05-17T09:25:24.453Z,99934.66
2023-05-17T09:28:29.405Z,99930.91
2023-05-17T09:31:33.333Z,99933.44
2023-05-17T09:34:39.303Z,99922.13
2023-05-17T09:37:42.942Z,99947.25
2023-05-17T09:40:46.437Z,99943.66
2023-05-17T09:43:49.599Z,99950.84
2023-05-17T09:46:52.885Z,99949.38
2023-05-17T09:50:02.795Z,99941.81
2023-05-17T09:53:05.243Z,99954.63
2023-05-17T09:56:10.037Z,99948.81
2023-05-17T09:59:16.317Z,99962.53
2023-05-17T10:02:23.492Z,99968.63
2023-05-17T10:05:26.528Z,99961.72
2023-05-17T10:08:30.193Z,99949.66
2023-05-17T10:11:36.621Z,99969.41
2023-05-17T10:14:39.928Z,99950.00
2023-05-17T10:17:45.458Z,99959.09
2023-05-17T10:20:49.628Z,99966.03
2023-05-17T10:23:53.770Z,99957.31
2023-05-17T10:26:57.446Z,99958.62
2023-05-17T10:30:00.859Z,99962.72
2023-05-17T10:33:04.634Z,99973.81
2023-05-17T10:36:08.321Z,99969.72
2023-05-17T10:39:11.837Z,99978.19
2023-05-17T10:42:17.973Z,99981.56
2023-05-17T10:45:22.383Z,99984.22
2023-05-17T10:48:29.134Z,99986.94
2023-05-17T10:51:37.684Z,99983.53
2023-05-17T10:54:45.115Z,99970.44
2023-05-17T10:58:21.085Z,99980.88
2023-05-17T11:01:50.208Z,99995.72
2023-05-17T11:04:53.961Z,99993.72
2023-05-17T11:08:18.275Z,99983.75
2023-05-17T11:11:20.831Z,99991.59
2023-05-17T11:14:24.340Z,100004.59
2023-05-17T11:17:51.669Z,100003.09
2023-05-17T11:21:08.827Z,100005.34
2023-05-17T11:24:16.055Z,100008.62
2023-05-17T11:27:19.803Z,100011.06
2023-05-17T11:30:29.621Z,100009.34
2023-05-17T11:33:44.415Z,100023.87
2023-05-17T11:36:54.724Z,100008.12
2023-05-17T11:40:08.632Z,100012.63
2023-05-17T11:43:19.190Z,100028.06
2023-05-17T11:46:24.006Z,100010.50
2023-05-17T11:49:35.586Z,100023.56
2023-05-17T11:52:41.429Z,100018.22
2023-05-17T11:55:48.022Z,100036.56
2023-05-17T11:58:54.300Z,100034.34
2023-05-17T12:01:56.789Z,100042.72
2023-05-17T12:04:59.726Z,100035.91
2023-05-17T12:08:02.382Z,100045.53
2023-05-17T12:11:06.782Z,100034.47
2023-05-17T12:14:09.398Z,100028.00
2023-05-17T12:17:17.902Z,100020.03
2023-05-17T12:20:20.388Z,100042.34
2023-05-17T12:23:43.802Z,100026.19
2023-05-17T12:26:47.867Z,100038.50
2023-05-17T12:29:50.683Z,100045.38
2023-05-17T12:32:54.031Z,100040.66
2023-05-17T12:35:57.104Z,100028.03
2023-05-17T12:39:01.022Z,100041.66
2023-05-17T12:42:03.906Z,100032.72
2023-05-17T12:45:06.921Z,100046.66
2023-05-17T12:48:09.701Z,100053.81
2023-05-17T12:51:17.323Z,100056.25
2023-05-17T12:54:28.367Z,100050.44
2023-05-17T12:57:31.151Z,100050.44
2023-05-17T13:00:33.936Z,100062.81
2023-05-17T13:03:36.872Z,100043.84
2023-05-17T13:06:54.244Z,100059.41
2023-05-17T13:09:57.029Z,100063.75
2023-05-17T13:13:00.449Z,100080.94
2023-05-17T13:16:02.941Z,100072.59
2023-05-17T13:19:13.956Z,100069.16
2023-05-17T13:22:16.568Z,100060.53
2023-05-17T13:25:19.795Z,100088.41
2023-05-17T13:28:22.194Z,100065.09
2023-05-17T13:31:24.908Z,100074.75
2023-05-17T13:34:27.377Z,100070.66
2023-05-17T13:37:30.044Z,100053.97
2023-05-17T13:40:32.480Z,100055.25
2023-05-17T13:43:36.219Z,100063.66
2023-05-17T13:46:38.611Z,100062.12
2023-05-17T13:49:42.131Z,100066.19
2023-05-17T13:52:44.674Z,100064.53
2023-05-17T13:55:47.679Z,100067.47
2023-05-17T13:58:50.664Z,100057.69
2023-05-17T14:01:53.871Z,100072.19
2023-05-17T14:04:56.574Z,100079.72
2023-05-17T14:07:59.307Z,100065.13
2023-05-17T14:11:02.090Z,100080.75
2023-05-17T14:14:04.551Z,100084.16
2023-05-17T14:17:07.331Z,100070.81
2023-05-17T14:20:10.585Z,100086.81
2023-05-17T14:23:13.662Z,100075.03
2023-05-17T14:26:16.253Z,100099.19
2023-05-17T14:29:19.083Z,100099.75
2023-05-17T14:32:21.479Z,100104.22
2023-05-17T14:35:24.902Z,100100.75
2023-05-17T14:38:27.352Z,100108.47
2023-05-17T14:41:30.113Z,100121.09
2023-05-17T14:44:34.687Z,100121.87
2023-05-17T14:47:37.536Z,100131.22
2023-05-17T14:50:39.927Z,100120.66
2023-05-17T14:53:42.910Z,100124.97
2023-05-17T14:56:45.489Z,100140.62
2023-05-17T14:59:48.278Z,100119.84
2023-05-17T15:02:51.212Z,100130.44
2023-05-17T15:05:58.381Z,100135.69
2023-05-17T15:09:02.279Z,100116.41
2023-05-17T15:12:05.550Z,100144.28
2023-05-17T15:15:08.610Z,100154.41
2023-05-17T15:18:11.529Z,100156.25
2023-05-17T15:21:14.035Z,100156.19
2023-05-17T15:24:17.958Z,100156.34
2023-05-17T15:27:20.360Z,100165.94
2023-05-17T15:30:27.449Z,100174.56
2023-05-17T15:33:31.128Z,100177.38
2023-05-17T15:36:34.440Z,100155.41
2023-05-17T15:39:36.849Z,100171.56
2023-05-17T15:42:39.574Z,100164.81
2023-05-17T15:45:42.262Z,100174.59
2023-05-17T15:48:45.573Z,100185.63
2023-05-17T15:51:48.086Z,100180.66
2023-05-17T15:54:50.995Z,100184.19
2023-05-17T15:57:53.423Z,100187.91
2023-05-17T16:00:56.316Z,100185.69
2023-05-17T16:03:59.152Z,100171.94
2023-05-17T16:07:01.656Z,100181.00
2023-05-17T16:10:04.598Z,100182.09
2023-05-17T16:13:07.004Z,100201.06
2023-05-17T16:16:10.689Z,100203.37
2023-05-17T16:19:13.165Z,100206.44
2023-05-17T16:22:16.551Z,100200.47
2023-05-17T16:25:20.202Z,100209.75
2023-05-17T16:28:23.720Z,100209.47
2023-05-17T16:31:26.293Z,100194.88
2023-05-17T16:34:29.358Z,100226.13
2023-05-17T16:37:31.845Z,100219.22
2023-05-17T16:40:34.534Z,100224.31
2023-05-17T16:43:36.945Z,100224.59
2023-05-17T16:46:39.692Z,100222.31
2023-05-17T16:49:42.789Z,100221.97
2023-05-17T16:52:45.554Z,100229.69
2023-05-17T16:55:47.871Z,100231.22
2023-05-17T16:58:51.231Z,100245.56
2023-05-17T17:01:53.854Z,100236.34
2023-05-17T17:04:56.605Z,100233.25
2023-05-17T17:07:58.987Z,100248.38
2023-05-17T17:11:01.625Z,100242.12
2023-05-17T17:14:04.488Z,100273.25
2023-05-17T17:17:08.035Z,100278.84
2023-05-17T17:20:11.315Z,100255.31
2023-05-17T17:23:13.998Z,100258.59
2023-05-17T17:26:16.577Z,100272.44
2023-05-17T17:29:19.234Z,100266.81
2023-05-17T17:32:21.947Z,100256.78
2023-05-17T17:35:24.812Z,100261.41
2023-05-17T17:38:27.271Z,100280.66
2023-05-17T17:41:30.004Z,100287.06
2023-05-17T17:44:32.535Z,100289.62
2023-05-17T17:47:35.665Z,100289.28
2023-05-17T17:50:38.050Z,100300.66
2023-05-17T17:53:41.970Z,100290.19
2023-05-17T17:56:45.487Z,100290.41
2023-05-17T17:59:48.145Z,100274.87
2023-05-17T18:02:50.519Z,100290.22
2023-05-17T18:05:53.250Z,100274.75
2023-05-17T18:08:56.372Z,100288.28
2023-05-17T18:11:59.675Z,100291.22
2023-05-17T18:15:02.107Z,100275.84
2023-05-17T18:18:04.861Z,100278.16
2023-05-17T18:21:09.257Z,100303.78
2023-05-17T18:24:12.503Z,100297.69
2023-05-17T18:27:15.118Z,100312.50
2023-05-17T18:30:18.596Z,100304.28
2023-05-17T18:33:20.996Z,100318.87
2023-05-17T18:36:23.665Z,100319.16
2023-05-17T18:39:26.855Z,100314.44
2023-05-17T18:42:29.654Z,100314.72
2023-05-17T18:45:36.221Z,100307.56
2023-05-17T18:48:40.105Z,100325.34
2023-05-17T18:51:42.517Z,100322.59
2023-05-17T18:54:47.041Z,100299.62
2023-05-17T18:57:49.405Z,100322.72
2023-05-17T19:00:52.093Z,100315.44
2023-05-17T19:03:56.357Z,100319.09
2023-05-17T19:06:59.182Z,100295.13
2023-05-17T19:10:01.786Z,100326.19
2023-05-17T19:13:06.635Z,100328.19
2023-05-17T19:16:09.348Z,100336.09
2023-05-17T19:19:12.187Z,100311.66
2023-05-17T19:22:14.662Z,100321.41
2023-05-17T19:25:19.003Z,100325.19
2023-05-17T19:28:22.846Z,100331.09
2023-05-17T19:31:26.069Z,100332.84
2023-05-17T19:34:28.573Z,100360.94
2023-05-17T19:37:31.372Z,100349.06
2023-05-17T19:40:34.342Z,100364.16
2023-05-17T19:43:37.913Z,100364.78
2023-05-17T19:46:40.592Z,100369.22
2023-05-17T19:49:43.603Z,100361.25
2023-05-17T19:52:46.221Z,100379.13
2023-05-17T19:55:49.636Z,100384.88
2023-05-17T19:58:53.058Z,100375.38
2023-05-17T20:01:56.050Z,100388.66
2023-05-17T20:05:02.217Z,100394.94
2023-05-17T20:08:08.205Z,100397.34
2023-05-17T20:11:11.358Z,100392.91
2023-05-17T20:14:13.780Z,100389.87
2023-05-17T20:17:16.470Z,100392.03
2023-05-17T20:20:19.010Z,100399.66
2023-05-17T20:23:24.897Z,100408.38
2023-05-17T20:26:31.947Z,100400.19
2023-05-17T20:29:34.892Z,100405.97
2023-05-17T20:32:37.765Z,100384.81
2023-05-17T20:35:40.667Z,100393.78
2023-05-17T20:38:43.287Z,100393.97
2023-05-17T20:41:47.767Z,100383.59
2023-05-17T20:44:53.680Z,100401.91
2023-05-17T20:47:57.060Z,100389.87
2023-05-17T20:51:00.078Z,100405.19
2023-05-17T20:54:03.752Z,100410.47
2023-05-17T20:57:06.703Z,100416.37
2023-05-17T21:00:11.917Z,100424.66
2023-05-17T21:03:14.616Z,100424.81
2023-05-17T21:06:17.389Z,100434.34
2023-05-17T21:09:19.768Z,100416.81
2023-05-17T21:12:23.931Z,100433.13
2023-05-17T21:15:26.408Z,100437.56
2023-05-17T21:18:29.070Z,100454.00
2023-05-17T21:21:31.521Z,100445.81
2023-05-17T21:24:34.212Z,100454.37
2023-05-17T21:27:36.830Z,100432.16
2023-05-17T21:30:39.492Z,100447.16
2023-05-17T21:33:41.876Z,100439.59
2023-05-17T21:36:44.539Z,100444.25
2023-05-17T21:39:46.938Z,100455.69
2023-05-17T21:42:49.721Z,100453.72
2023-05-17T21:45:52.145Z,100455.88
2023-05-17T21:48:54.775Z,100440.28
2023-05-17T21:51:57.082Z,100455.09
2023-05-17T21:54:59.804Z,100447.34
2023-05-17T21:58:02.205Z,100462.09
2023-05-17T22:01:05.077Z,100460.97
2023-05-17T22:04:09.282Z,100467.16
2023-05-17T22:07:13.257Z,100422.81
2023-05-17T22:10:15.988Z,100462.38
2023-05-17T22:13:19.180Z,100451.34
2023-05-17T22:16:25.723Z,100458.97
2023-05-17T22:19:30.457Z,100467.97
2023-05-17T22:22:33.285Z,100469.28
2023-05-17T22:25:35.832Z,100461.97
2023-05-17T22:28:38.501Z,100472.72
2023-05-17T22:31:40.928Z,100474.69
2023-05-17T22:34:43.713Z,100468.91
2023-05-17T22:37:46.102Z,100466.25
2023-05-17T22:40:49.208Z,100485.81
2023-05-17T22:43:51.563Z,100468.38
2023-05-17T22:46:57.642Z,100471.13
2023-05-17T22:50:00.853Z,100488.19
2023-05-17T22:53:03.719Z,100490.16
2023-05-17T22:56:06.972Z,100492.72
2023-05-17T22:59:09.705Z,100479.97
2023-05-17T23:02:12.478Z,100496.28
2023-05-17T23:05:15.737Z,100504.16
2023-05-17T23:08:18.165Z,100504.97
2023-05-17T23:11:20.849Z,100505.81
2023-05-17T23:14:23.449Z,100498.44
2023-05-17T23:17:32.341Z,100510.56
2023-05-17T23:20:36.026Z,100511.03
2023-05-17T23:23:40.636Z,100517.44
2023-05-17T23:26:43.062Z,100511.66
2023-05-17T23:29:45.992Z,100495.75
2023-05-17T23:32:50.586Z,100518.75
2023-05-17T23:35:55.618Z,100511.75
2023-05-17T23:38:58.023Z,100508.69
2023-05-17T23:42:00.642Z,100518.03
2023-05-17T23:45:03.944Z,100522.53
2023-05-17T23:48:09.867Z,100519.88
2023-05-17T23:51:12.362Z,100518.22
2023-05-17T23:54:16.167Z,100523.59
2023-05-17T23:57:18.567Z,100523.31
